sensor_id;sensor_type;location;lat;lon;timestamp;P1;durP1;ratioP1;P2;durP2;ratioP2
21527;SDS011;10925;49.102;-0.370;2023-04-03T00:01:54;15.20;;;3.25;;
21527;SDS011;10925;49.102;-0.370;2023-04-03T00:04:20;13.88;;;2.33;;
21527;SDS011;10925;49.102;-0.370;2023-04-03T00:06:45;16.42;;;6.35;;
21527;SDS011;10925;49.102;-0.370;2023-04-03T00:16:27;19.58;;;4.85;;
21527;SDS011;10925;49.102;-0.370;2023-04-03T00:18:55;15.18;;;4.18;;
21527;SDS011;10925;49.102;-0.370;2023-04-03T00:21:21;19.70;;;5.75;;
21527;SDS011;10925;49.102;-0.370;2023-04-03T00:23:47;12.25;;;4.95;;
21527;SDS011;10925;49.102;-0.370;2023-04-03T00:26:12;16.85;;;5.50;;
21527;SDS011;10925;49.102;-0.370;2023-04-03T00:28:38;15.80;;;6.03;;
21527;SDS011;10925;49.102;-0.370;2023-04-03T00:31:04;20.65;;;6.55;;
21527;SDS011;10925;49.102;-0.370;2023-04-03T00:33:29;17.63;;;3.53;;
21527;SDS011;10925;49.102;-0.370;2023-04-03T00:35:57;17.55;;;3.38;;
21527;SDS011;10925;49.102;-0.370;2023-04-03T00:38:24;20.23;;;3.88;;
21527;SDS011;10925;49.102;-0.370;2023-04-03T00:40:51;11.98;;;3.42;;
21527;SDS011;10925;49.102;-0.370;2023-04-03T00:43:18;15.80;;;3.17;;
21527;SDS011;10925;49.102;-0.370;2023-04-03T00:45:46;11.75;;;3.13;;
21527;SDS011;10925;49.102;-0.370;2023-04-03T00:48:13;15.55;;;3.10;;
21527;SDS011;10925;49.102;-0.370;2023-04-03T00:50:42;9.00;;;2.97;;
21527;SDS011;10925;49.102;-0.370;2023-04-03T00:53:14;18.35;;;4.00;;
21527;SDS011;10925;49.102;-0.370;2023-04-03T00:55:42;15.57;;;4.20;;
21527;SDS011;10925;49.102;-0.370;2023-04-03T00:58:08;13.02;;;4.70;;
21527;SDS011;10925;49.102;-0.370;2023-04-03T01:00:37;10.63;;;3.95;;
21527;SDS011;10925;49.102;-0.370;2023-04-03T01:03:04;10.27;;;4.35;;
21527;SDS011;10925;49.102;-0.370;2023-04-03T01:05:32;15.35;;;5.15;;
21527;SDS011;10925;49.102;-0.370;2023-04-03T01:07:59;12.75;;;4.80;;
21527;SDS011;10925;49.102;-0.370;2023-04-03T01:10:25;11.70;;;5.47;;
21527;SDS011;10925;49.102;-0.370;2023-04-03T01:12:53;7.65;;;4.38;;
21527;SDS011;10925;49.102;-0.370;2023-04-03T01:15:24;15.73;;;5.93;;
21527;SDS011;10925;49.102;-0.370;2023-04-03T01:17:53;17.05;;;6.90;;
21527;SDS011;10925;49.102;-0.370;2023-04-03T01:20:35;17.55;;;7.25;;
21527;SDS011;10925;49.102;-0.370;2023-04-03T01:25:39;14.98;;;7.78;;
21527;SDS011;10925;49.102;-0.370;2023-04-03T01:28:07;15.98;;;7.95;;
21527;SDS011;10925;49.102;-0.370;2023-04-03T01:30:38;13.73;;;6.70;;
21527;SDS011;10925;49.102;-0.370;2023-04-03T01:33:05;15.23;;;5.00;;
21527;SDS011;10925;49.102;-0.370;2023-04-03T01:35:30;13.88;;;5.68;;
21527;SDS011;10925;49.102;-0.370;2023-04-03T01:37:58;16.35;;;6.45;;
21527;SDS011;10925;49.102;-0.370;2023-04-03T01:40:25;16.23;;;7.47;;
21527;SDS011;10925;49.102;-0.370;2023-04-03T01:42:52;20.85;;;11.70;;
21527;SDS011;10925;49.102;-0.370;2023-04-03T01:45:20;29.02;;;13.52;;
21527;SDS011;10925;49.102;-0.370;2023-04-03T01:47:47;29.08;;;10.95;;
21527;SDS011;10925;49.102;-0.370;2023-04-03T01:50:15;19.08;;;9.02;;
21527;SDS011;10925;49.102;-0.370;2023-04-03T01:52:40;20.42;;;8.98;;
21527;SDS011;10925;49.102;-0.370;2023-04-03T01:55:06;20.77;;;9.32;;
21527;SDS011;10925;49.102;-0.370;2023-04-03T01:57:32;16.77;;;8.73;;
21527;SDS011;10925;49.102;-0.370;2023-04-03T01:59:59;19.65;;;9.45;;
21527;SDS011;10925;49.102;-0.370;2023-04-03T02:05:30;18.52;;;7.82;;
21527;SDS011;10925;49.102;-0.370;2023-04-03T02:07:57;13.95;;;7.22;;
21527;SDS011;10925;49.102;-0.370;2023-04-03T02:10:25;14.00;;;9.02;;
21527;SDS011;10925;49.102;-0.370;2023-04-03T02:12:52;18.38;;;9.00;;
21527;SDS011;10925;49.102;-0.370;2023-04-03T02:15:18;19.52;;;9.98;;
21527;SDS011;10925;49.102;-0.370;2023-04-03T02:17:44;19.52;;;10.80;;
21527;SDS011;10925;49.102;-0.370;2023-04-03T02:20:13;15.02;;;10.68;;
21527;SDS011;10925;49.102;-0.370;2023-04-03T02:22:40;16.65;;;10.75;;
21527;SDS011;10925;49.102;-0.370;2023-04-03T02:25:07;17.67;;;10.63;;
21527;SDS011;10925;49.102;-0.370;2023-04-03T02:27:34;17.25;;;11.05;;
21527;SDS011;10925;49.102;-0.370;2023-04-03T02:30:03;19.80;;;11.90;;
21527;SDS011;10925;49.102;-0.370;2023-04-03T02:32:30;16.70;;;10.70;;
21527;SDS011;10925;49.102;-0.370;2023-04-03T02:34:57;18.85;;;11.68;;
21527;SDS011;10925;49.102;-0.370;2023-04-03T02:37:25;21.77;;;11.55;;
21527;SDS011;10925;49.102;-0.370;2023-04-03T02:39:53;19.13;;;11.68;;
21527;SDS011;10925;49.102;-0.370;2023-04-03T02:42:20;23.05;;;12.00;;
21527;SDS011;10925;49.102;-0.370;2023-04-03T02:44:46;18.17;;;11.80;;
21527;SDS011;10925;49.102;-0.370;2023-04-03T02:47:13;16.92;;;11.93;;
21527;SDS011;10925;49.102;-0.370;2023-04-03T02:49:40;19.20;;;12.75;;
21527;SDS011;10925;49.102;-0.370;2023-04-03T02:52:06;19.98;;;12.13;;
21527;SDS011;10925;49.102;-0.370;2023-04-03T02:54:33;18.35;;;12.15;;
21527;SDS011;10925;49.102;-0.370;2023-04-03T02:57:04;20.85;;;12.05;;
21527;SDS011;10925;49.102;-0.370;2023-04-03T02:59:31;18.23;;;12.25;;
21527;SDS011;10925;49.102;-0.370;2023-04-03T03:02:08;17.60;;;13.23;;
21527;SDS011;10925;49.102;-0.370;2023-04-03T03:04:34;20.77;;;13.60;;
21527;SDS011;10925;49.102;-0.370;2023-04-03T03:07:00;23.52;;;14.02;;
21527;SDS011;10925;49.102;-0.370;2023-04-03T03:09:27;22.48;;;14.70;;
21527;SDS011;10925;49.102;-0.370;2023-04-03T03:11:57;18.90;;;14.02;;
21527;SDS011;10925;49.102;-0.370;2023-04-03T03:14:24;20.58;;;13.95;;
21527;SDS011;10925;49.102;-0.370;2023-04-03T03:16:51;23.88;;;13.82;;
21527;SDS011;10925;49.102;-0.370;2023-04-03T03:19:18;21.85;;;14.10;;
21527;SDS011;10925;49.102;-0.370;2023-04-03T03:21:46;21.00;;;13.43;;
21527;SDS011;10925;49.102;-0.370;2023-04-03T03:24:13;22.40;;;12.73;;
21527;SDS011;10925;49.102;-0.370;2023-04-03T03:26:42;20.23;;;13.43;;
21527;SDS011;10925;49.102;-0.370;2023-04-03T03:29:11;18.77;;;13.05;;
21527;SDS011;10925;49.102;-0.370;2023-04-03T03:31:38;20.40;;;13.07;;
21527;SDS011;10925;49.102;-0.370;2023-04-03T03:34:05;17.10;;;13.20;;
21527;SDS011;10925;49.102;-0.370;2023-04-03T03:36:32;22.02;;;13.52;;
21527;SDS011;10925;49.102;-0.370;2023-04-03T03:39:01;17.33;;;13.15;;
21527;SDS011;10925;49.102;-0.370;2023-04-03T03:41:28;21.55;;;13.27;;
21527;SDS011;10925;49.102;-0.370;2023-04-03T03:43:54;20.63;;;13.32;;
21527;SDS011;10925;49.102;-0.370;2023-04-03T03:46:20;22.25;;;12.90;;
21527;SDS011;10925;49.102;-0.370;2023-04-03T03:48:47;22.38;;;13.15;;
21527;SDS011;10925;49.102;-0.370;2023-04-03T03:51:15;18.58;;;13.52;;
21527;SDS011;10925;49.102;-0.370;2023-04-03T03:53:42;21.50;;;14.00;;
21527;SDS011;10925;49.102;-0.370;2023-04-03T03:56:09;20.98;;;14.15;;
21527;SDS011;10925;49.102;-0.370;2023-04-03T03:58:34;22.25;;;14.27;;
21527;SDS011;10925;49.102;-0.370;2023-04-03T04:01:01;24.63;;;14.90;;
21527;SDS011;10925;49.102;-0.370;2023-04-03T04:03:27;21.10;;;14.25;;
21527;SDS011;10925;49.102;-0.370;2023-04-03T04:05:55;23.58;;;15.30;;
21527;SDS011;10925;49.102;-0.370;2023-04-03T04:08:23;23.70;;;15.25;;
21527;SDS011;10925;49.102;-0.370;2023-04-03T04:10:50;25.23;;;15.02;;
21527;SDS011;10925;49.102;-0.370;2023-04-03T04:13:18;25.13;;;14.23;;
21527;SDS011;10925;49.102;-0.370;2023-04-03T04:15:44;24.20;;;15.60;;
21527;SDS011;10925;49.102;-0.370;2023-04-03T04:18:11;24.88;;;16.17;;
21527;SDS011;10925;49.102;-0.370;2023-04-03T04:20:41;25.15;;;16.83;;
21527;SDS011;10925;49.102;-0.370;2023-04-03T04:23:08;26.27;;;17.27;;
21527;SDS011;10925;49.102;-0.370;2023-04-03T04:25:36;26.58;;;18.63;;
21527;SDS011;10925;49.102;-0.370;2023-04-03T04:28:02;28.00;;;17.90;;
21527;SDS011;10925;49.102;-0.370;2023-04-03T04:30:30;24.27;;;18.20;;
21527;SDS011;10925;49.102;-0.370;2023-04-03T04:32:57;26.50;;;17.48;;
21527;SDS011;10925;49.102;-0.370;2023-04-03T04:35:23;28.00;;;18.67;;
21527;SDS011;10925;49.102;-0.370;2023-04-03T04:38:01;25.38;;;18.10;;
21527;SDS011;10925;49.102;-0.370;2023-04-03T04:40:28;25.98;;;18.08;;
21527;SDS011;10925;49.102;-0.370;2023-04-03T04:48:28;25.42;;;19.20;;
21527;SDS011;10925;49.102;-0.370;2023-04-03T04:50:59;26.95;;;18.48;;
21527;SDS011;10925;49.102;-0.370;2023-04-03T04:53:26;22.75;;;16.63;;
21527;SDS011;10925;49.102;-0.370;2023-04-03T04:55:53;26.73;;;17.40;;
21527;SDS011;10925;49.102;-0.370;2023-04-03T04:58:21;25.65;;;18.27;;
21527;SDS011;10925;49.102;-0.370;2023-04-03T05:00:49;27.48;;;18.35;;
21527;SDS011;10925;49.102;-0.370;2023-04-03T05:03:16;27.08;;;17.80;;
21527;SDS011;10925;49.102;-0.370;2023-04-03T05:05:44;24.52;;;17.38;;
21527;SDS011;10925;49.102;-0.370;2023-04-03T05:08:11;24.15;;;16.98;;
21527;SDS011;10925;49.102;-0.370;2023-04-03T05:10:38;25.45;;;18.38;;
21527;SDS011;10925;49.102;-0.370;2023-04-03T05:13:08;28.77;;;19.25;;
21527;SDS011;10925;49.102;-0.370;2023-04-03T05:15:35;26.92;;;17.92;;
21527;SDS011;10925;49.102;-0.370;2023-04-03T05:18:03;25.17;;;18.10;;
21527;SDS011;10925;49.102;-0.370;2023-04-03T05:20:30;26.23;;;18.40;;
21527;SDS011;10925;49.102;-0.370;2023-04-03T05:25:45;28.02;;;18.52;;
21527;SDS011;10925;49.102;-0.370;2023-04-03T05:28:12;30.55;;;19.15;;
21527;SDS011;10925;49.102;-0.370;2023-04-03T05:30:37;28.23;;;18.25;;
21527;SDS011;10925;49.102;-0.370;2023-04-03T05:33:05;26.77;;;18.67;;
21527;SDS011;10925;49.102;-0.370;2023-04-03T05:35:37;28.38;;;18.27;;
21527;SDS011;10925;49.102;-0.370;2023-04-03T05:38:06;30.63;;;19.70;;
21527;SDS011;10925;49.102;-0.370;2023-04-03T05:40:32;27.08;;;19.70;;
21527;SDS011;10925;49.102;-0.370;2023-04-03T05:42:57;28.40;;;19.65;;
21527;SDS011;10925;49.102;-0.370;2023-04-03T05:45:23;30.23;;;20.30;;
21527;SDS011;10925;49.102;-0.370;2023-04-03T05:47:49;31.25;;;20.08;;
21527;SDS011;10925;49.102;-0.370;2023-04-03T05:50:14;27.92;;;18.75;;
21527;SDS011;10925;49.102;-0.370;2023-04-03T05:52:43;33.55;;;19.17;;
21527;SDS011;10925;49.102;-0.370;2023-04-03T05:55:12;29.30;;;16.67;;
21527;SDS011;10925;49.102;-0.370;2023-04-03T05:57:39;31.23;;;19.83;;
21527;SDS011;10925;49.102;-0.370;2023-04-03T06:00:08;27.10;;;18.75;;
21527;SDS011;10925;49.102;-0.370;2023-04-03T06:02:34;32.65;;;22.40;;
21527;SDS011;10925;49.102;-0.370;2023-04-03T06:05:01;31.95;;;20.45;;
21527;SDS011;10925;49.102;-0.370;2023-04-03T06:07:26;31.55;;;21.55;;
21527;SDS011;10925;49.102;-0.370;2023-04-03T06:09:54;28.33;;;20.58;;
21527;SDS011;10925;49.102;-0.370;2023-04-03T06:12:20;30.40;;;21.77;;
21527;SDS011;10925;49.102;-0.370;2023-04-03T06:14:46;31.60;;;21.35;;
21527;SDS011;10925;49.102;-0.370;2023-04-03T06:17:12;29.30;;;20.23;;
21527;SDS011;10925;49.102;-0.370;2023-04-03T06:19:38;28.33;;;20.38;;
21527;SDS011;10925;49.102;-0.370;2023-04-03T06:22:04;29.65;;;20.17;;
21527;SDS011;10925;49.102;-0.370;2023-04-03T06:24:30;32.50;;;22.25;;
21527;SDS011;10925;49.102;-0.370;2023-04-03T06:26:56;33.08;;;21.50;;
21527;SDS011;10925;49.102;-0.370;2023-04-03T06:29:22;33.90;;;23.40;;
21527;SDS011;10925;49.102;-0.370;2023-04-03T06:31:48;34.70;;;22.42;;
21527;SDS011;10925;49.102;-0.370;2023-04-03T06:34:14;29.15;;;20.70;;
21527;SDS011;10925;49.102;-0.370;2023-04-03T06:36:40;31.50;;;21.42;;
21527;SDS011;10925;49.102;-0.370;2023-04-03T06:39:07;29.60;;;19.23;;
21527;SDS011;10925;49.102;-0.370;2023-04-03T06:41:34;33.25;;;20.55;;
21527;SDS011;10925;49.102;-0.370;2023-04-03T06:44:00;35.05;;;21.30;;
21527;SDS011;10925;49.102;-0.370;2023-04-03T06:46:26;33.85;;;21.25;;
21527;SDS011;10925;49.102;-0.370;2023-04-03T06:48:52;36.55;;;21.45;;
21527;SDS011;10925;49.102;-0.370;2023-04-03T06:51:19;33.15;;;21.63;;
21527;SDS011;10925;49.102;-0.370;2023-04-03T06:53:46;28.05;;;18.25;;
21527;SDS011;10925;49.102;-0.370;2023-04-03T06:56:12;27.45;;;18.35;;
21527;SDS011;10925;49.102;-0.370;2023-04-03T06:58:38;29.35;;;19.38;;
21527;SDS011;10925;49.102;-0.370;2023-04-03T07:01:04;28.95;;;16.55;;
21527;SDS011;10925;49.102;-0.370;2023-04-03T07:03:29;26.15;;;15.32;;
21527;SDS011;10925;49.102;-0.370;2023-04-03T07:05:58;25.35;;;17.50;;
21527;SDS011;10925;49.102;-0.370;2023-04-03T07:08:24;26.95;;;17.77;;
21527;SDS011;10925;49.102;-0.370;2023-04-03T07:13:53;17.35;;;11.50;;
21527;SDS011;10925;49.102;-0.370;2023-04-03T07:16:19;23.23;;;13.40;;
21527;SDS011;10925;49.102;-0.370;2023-04-03T07:21:35;19.17;;;13.80;;
21527;SDS011;10925;49.102;-0.370;2023-04-03T07:24:01;19.80;;;13.13;;
21527;SDS011;10925;49.102;-0.370;2023-04-03T07:26:27;20.25;;;14.43;;
21527;SDS011;10925;49.102;-0.370;2023-04-03T07:28:53;17.77;;;13.38;;
21527;SDS011;10925;49.102;-0.370;2023-04-03T07:31:18;16.83;;;12.20;;
21527;SDS011;10925;49.102;-0.370;2023-04-03T07:33:44;18.13;;;14.27;;
21527;SDS011;10925;49.102;-0.370;2023-04-03T07:36:14;20.17;;;12.73;;
21527;SDS011;10925;49.102;-0.370;2023-04-03T07:38:40;25.85;;;13.60;;
21527;SDS011;10925;49.102;-0.370;2023-04-03T07:41:06;19.63;;;13.52;;
21527;SDS011;10925;49.102;-0.370;2023-04-03T07:43:31;17.02;;;12.10;;
21527;SDS011;10925;49.102;-0.370;2023-04-03T07:45:58;16.38;;;11.15;;
21527;SDS011;10925;49.102;-0.370;2023-04-03T07:48:24;19.13;;;10.95;;
21527;SDS011;10925;49.102;-0.370;2023-04-03T07:50:58;18.02;;;13.00;;
21527;SDS011;10925;49.102;-0.370;2023-04-03T07:56:28;18.05;;;13.32;;
21527;SDS011;10925;49.102;-0.370;2023-04-03T07:58:54;19.77;;;14.35;;
21527;SDS011;10925;49.102;-0.370;2023-04-03T08:01:21;17.08;;;12.50;;
21527;SDS011;10925;49.102;-0.370;2023-04-03T08:03:49;17.58;;;13.85;;
21527;SDS011;10925;49.102;-0.370;2023-04-03T08:06:14;18.77;;;14.65;;
21527;SDS011;10925;49.102;-0.370;2023-04-03T08:08:40;19.45;;;13.40;;
21527;SDS011;10925;49.102;-0.370;2023-04-03T08:11:06;19.75;;;13.75;;
21527;SDS011;10925;49.102;-0.370;2023-04-03T08:13:33;19.88;;;13.43;;
21527;SDS011;10925;49.102;-0.370;2023-04-03T08:16:10;19.25;;;14.15;;
21527;SDS011;10925;49.102;-0.370;2023-04-03T08:18:36;23.55;;;15.07;;
21527;SDS011;10925;49.102;-0.370;2023-04-03T08:21:05;16.88;;;12.43;;
21527;SDS011;10925;49.102;-0.370;2023-04-03T08:23:31;17.45;;;11.05;;
21527;SDS011;10925;49.102;-0.370;2023-04-03T08:25:56;18.10;;;13.00;;
21527;SDS011;10925;49.102;-0.370;2023-04-03T08:28:22;17.95;;;13.10;;
21527;SDS011;10925;49.102;-0.370;2023-04-03T08:33:44;21.42;;;14.30;;
21527;SDS011;10925;49.102;-0.370;2023-04-03T08:36:18;20.40;;;13.32;;
21527;SDS011;10925;49.102;-0.370;2023-04-03T08:38:44;22.13;;;14.45;;
21527;SDS011;10925;49.102;-0.370;2023-04-03T08:41:13;19.83;;;12.95;;
21527;SDS011;10925;49.102;-0.370;2023-04-03T08:43:55;16.90;;;10.65;;
21527;SDS011;10925;49.102;-0.370;2023-04-03T08:46:24;17.67;;;13.35;;
21527;SDS011;10925;49.102;-0.370;2023-04-03T08:48:53;11.32;;;7.82;;
21527;SDS011;10925;49.102;-0.370;2023-04-03T08:51:21;18.40;;;13.07;;
21527;SDS011;10925;49.102;-0.370;2023-04-03T08:53:55;17.58;;;12.60;;
21527;SDS011;10925;49.102;-0.370;2023-04-03T08:56:24;19.75;;;13.65;;
21527;SDS011;10925;49.102;-0.370;2023-04-03T08:58:55;15.43;;;9.63;;
21527;SDS011;10925;49.102;-0.370;2023-04-03T09:01:30;19.67;;;14.07;;
21527;SDS011;10925;49.102;-0.370;2023-04-03T09:04:00;17.48;;;13.75;;
21527;SDS011;10925;49.102;-0.370;2023-04-03T09:06:31;18.73;;;13.15;;
21527;SDS011;10925;49.102;-0.370;2023-04-03T09:16:59;15.80;;;10.52;;
21527;SDS011;10925;49.102;-0.370;2023-04-03T09:19:36;16.50;;;9.90;;
21527;SDS011;10925;49.102;-0.370;2023-04-03T09:22:16;15.50;;;12.52;;
21527;SDS011;10925;49.102;-0.370;2023-04-03T09:24:47;17.63;;;13.02;;
21527;SDS011;10925;49.102;-0.370;2023-04-03T09:27:14;18.63;;;12.55;;
21527;SDS011;10925;49.102;-0.370;2023-04-03T09:29:42;19.35;;;13.90;;
21527;SDS011;10925;49.102;-0.370;2023-04-03T09:34:44;17.65;;;13.02;;
21527;SDS011;10925;49.102;-0.370;2023-04-03T09:37:10;17.50;;;11.77;;
21527;SDS011;10925;49.102;-0.370;2023-04-03T09:39:58;18.08;;;12.20;;
21527;SDS011;10925;49.102;-0.370;2023-04-03T09:42:24;20.88;;;12.27;;
21527;SDS011;10925;49.102;-0.370;2023-04-03T09:44:54;18.98;;;13.50;;
21527;SDS011;10925;49.102;-0.370;2023-04-03T09:47:25;21.13;;;13.82;;
21527;SDS011;10925;49.102;-0.370;2023-04-03T09:52:55;18.98;;;13.27;;
21527;SDS011;10925;49.102;-0.370;2023-04-03T09:55:24;18.98;;;13.48;;
21527;SDS011;10925;49.102;-0.370;2023-04-03T09:57:57;18.08;;;12.40;;
21527;SDS011;10925;49.102;-0.370;2023-04-03T10:00:37;17.33;;;12.27;;
21527;SDS011;10925;49.102;-0.370;2023-04-03T10:03:23;19.52;;;14.85;;
21527;SDS011;10925;49.102;-0.370;2023-04-03T10:05:49;17.55;;;13.05;;
21527;SDS011;10925;49.102;-0.370;2023-04-03T10:10:46;21.45;;;15.23;;
21527;SDS011;10925;49.102;-0.370;2023-04-03T10:13:18;22.85;;;13.10;;
21527;SDS011;10925;49.102;-0.370;2023-04-03T10:20:50;22.63;;;13.73;;
21527;SDS011;10925;49.102;-0.370;2023-04-03T10:23:26;22.40;;;15.35;;
21527;SDS011;10925;49.102;-0.370;2023-04-03T10:25:59;15.82;;;12.48;;
21527;SDS011;10925;49.102;-0.370;2023-04-03T10:28:31;19.13;;;13.65;;
21527;SDS011;10925;49.102;-0.370;2023-04-03T10:31:03;17.73;;;12.93;;
21527;SDS011;10925;49.102;-0.370;2023-04-03T10:33:52;21.02;;;14.00;;
21527;SDS011;10925;49.102;-0.370;2023-04-03T10:39:08;18.77;;;14.02;;
21527;SDS011;10925;49.102;-0.370;2023-04-03T10:41:51;19.38;;;12.75;;
21527;SDS011;10925;49.102;-0.370;2023-04-03T10:46:52;21.80;;;14.18;;
21527;SDS011;10925;49.102;-0.370;2023-04-03T11:02:04;19.02;;;13.63;;
21527;SDS011;10925;49.102;-0.370;2023-04-03T11:04:34;19.27;;;12.85;;
21527;SDS011;10925;49.102;-0.370;2023-04-03T11:07:12;19.00;;;14.93;;
21527;SDS011;10925;49.102;-0.370;2023-04-03T11:09:40;17.20;;;9.90;;
21527;SDS011;10925;49.102;-0.370;2023-04-03T11:14:39;20.25;;;13.63;;
21527;SDS011;10925;49.102;-0.370;2023-04-03T11:22:22;19.63;;;12.60;;
21527;SDS011;10925;49.102;-0.370;2023-04-03T11:24:51;19.40;;;13.73;;
21527;SDS011;10925;49.102;-0.370;2023-04-03T11:27:21;19.02;;;12.85;;
21527;SDS011;10925;49.102;-0.370;2023-04-03T11:29:48;21.55;;;13.15;;
21527;SDS011;10925;49.102;-0.370;2023-04-03T11:35:01;20.77;;;15.23;;
21527;SDS011;10925;49.102;-0.370;2023-04-03T11:37:43;18.73;;;12.02;;
21527;SDS011;10925;49.102;-0.370;2023-04-03T11:40:31;20.80;;;11.57;;
21527;SDS011;10925;49.102;-0.370;2023-04-03T11:47:57;20.85;;;13.23;;
21527;SDS011;10925;49.102;-0.370;2023-04-03T12:04:12;20.52;;;13.55;;
21527;SDS011;10925;49.102;-0.370;2023-04-03T12:13:36;21.92;;;14.43;;
21527;SDS011;10925;49.102;-0.370;2023-04-03T12:16:03;21.05;;;15.35;;
21527;SDS011;10925;49.102;-0.370;2023-04-03T12:18:41;18.27;;;11.77;;
21527;SDS011;10925;49.102;-0.370;2023-04-03T12:21:08;18.92;;;13.80;;
21527;SDS011;10925;49.102;-0.370;2023-04-03T12:26:22;22.67;;;13.83;;
21527;SDS011;10925;49.102;-0.370;2023-04-03T12:29:10;22.15;;;15.45;;
21527;SDS011;10925;49.102;-0.370;2023-04-03T12:31:42;21.30;;;14.30;;
21527;SDS011;10925;49.102;-0.370;2023-04-03T12:39:06;17.42;;;13.98;;
21527;SDS011;10925;49.102;-0.370;2023-04-03T12:46:44;18.63;;;12.43;;
21527;SDS011;10925;49.102;-0.370;2023-04-03T12:51:48;17.38;;;13.23;;
21527;SDS011;10925;49.102;-0.370;2023-04-03T12:54:19;20.13;;;13.65;;
21527;SDS011;10925;49.102;-0.370;2023-04-03T12:56:48;18.05;;;13.82;;
21527;SDS011;10925;49.102;-0.370;2023-04-03T12:59:23;21.40;;;14.65;;
21527;SDS011;10925;49.102;-0.370;2023-04-03T13:01:56;19.50;;;15.00;;
21527;SDS011;10925;49.102;-0.370;2023-04-03T13:04:22;22.65;;;15.00;;
21527;SDS011;10925;49.102;-0.370;2023-04-03T13:06:48;21.42;;;14.25;;
21527;SDS011;10925;49.102;-0.370;2023-04-03T13:11:49;21.45;;;14.73;;
21527;SDS011;10925;49.102;-0.370;2023-04-03T13:14:20;21.08;;;12.80;;
21527;SDS011;10925;49.102;-0.370;2023-04-03T13:16:56;23.60;;;15.68;;
21527;SDS011;10925;49.102;-0.370;2023-04-03T13:19:22;21.03;;;13.73;;
21527;SDS011;10925;49.102;-0.370;2023-04-03T13:21:48;21.45;;;13.75;;
21527;SDS011;10925;49.102;-0.370;2023-04-03T13:24:14;21.50;;;14.15;;
21527;SDS011;10925;49.102;-0.370;2023-04-03T13:26:40;21.30;;;15.65;;
21527;SDS011;10925;49.102;-0.370;2023-04-03T13:29:07;20.10;;;14.63;;
21527;SDS011;10925;49.102;-0.370;2023-04-03T13:31:42;15.23;;;10.52;;
21527;SDS011;10925;49.102;-0.370;2023-04-03T13:34:12;19.67;;;12.27;;
21527;SDS011;10925;49.102;-0.370;2023-04-03T13:36:40;23.30;;;15.55;;
21527;SDS011;10925;49.102;-0.370;2023-04-03T13:41:35;21.05;;;17.02;;
21527;SDS011;10925;49.102;-0.370;2023-04-03T13:46:51;24.30;;;16.80;;
21527;SDS011;10925;49.102;-0.370;2023-04-03T13:49:18;22.13;;;14.70;;
21527;SDS011;10925;49.102;-0.370;2023-04-03T13:51:44;23.17;;;16.42;;
21527;SDS011;10925;49.102;-0.370;2023-04-03T13:54:16;24.30;;;14.60;;
21527;SDS011;10925;49.102;-0.370;2023-04-03T13:56:43;22.08;;;15.23;;
21527;SDS011;10925;49.102;-0.370;2023-04-03T14:01:43;20.15;;;13.30;;
21527;SDS011;10925;49.102;-0.370;2023-04-03T14:04:15;22.85;;;15.38;;
21527;SDS011;10925;49.102;-0.370;2023-04-03T14:06:41;24.05;;;15.02;;
21527;SDS011;10925;49.102;-0.370;2023-04-03T14:09:07;31.45;;;12.15;;
21527;SDS011;10925;49.102;-0.370;2023-04-03T14:11:32;27.90;;;16.15;;
21527;SDS011;10925;49.102;-0.370;2023-04-03T14:14:11;27.17;;;14.45;;
21527;SDS011;10925;49.102;-0.370;2023-04-03T14:16:39;24.85;;;16.25;;
21527;SDS011;10925;49.102;-0.370;2023-04-03T14:19:06;19.60;;;12.90;;
21527;SDS011;10925;49.102;-0.370;2023-04-03T14:21:31;19.27;;;14.73;;
21527;SDS011;10925;49.102;-0.370;2023-04-03T14:23:57;24.60;;;17.88;;
21527;SDS011;10925;49.102;-0.370;2023-04-03T14:26:23;21.80;;;15.13;;
21527;SDS011;10925;49.102;-0.370;2023-04-03T14:28:52;21.35;;;15.43;;
21527;SDS011;10925;49.102;-0.370;2023-04-03T14:31:18;23.80;;;15.50;;
21527;SDS011;10925;49.102;-0.370;2023-04-03T14:33:46;19.40;;;14.77;;
21527;SDS011;10925;49.102;-0.370;2023-04-03T14:36:15;21.25;;;16.00;;
21527;SDS011;10925;49.102;-0.370;2023-04-03T14:38:43;25.17;;;17.98;;
21527;SDS011;10925;49.102;-0.370;2023-04-03T14:41:12;20.65;;;13.38;;
21527;SDS011;10925;49.102;-0.370;2023-04-03T14:43:38;23.25;;;13.73;;
21527;SDS011;10925;49.102;-0.370;2023-04-03T14:46:09;24.10;;;16.83;;
21527;SDS011;10925;49.102;-0.370;2023-04-03T14:48:36;21.25;;;17.85;;
21527;SDS011;10925;49.102;-0.370;2023-04-03T14:51:02;20.38;;;13.68;;
21527;SDS011;10925;49.102;-0.370;2023-04-03T14:53:31;22.80;;;16.85;;
21527;SDS011;10925;49.102;-0.370;2023-04-03T14:56:02;20.83;;;15.50;;
21527;SDS011;10925;49.102;-0.370;2023-04-03T14:58:29;18.65;;;13.32;;
21527;SDS011;10925;49.102;-0.370;2023-04-03T15:00:56;20.60;;;14.70;;
21527;SDS011;10925;49.102;-0.370;2023-04-03T15:03:24;17.65;;;11.80;;
21527;SDS011;10925;49.102;-0.370;2023-04-03T15:05:52;19.27;;;11.65;;
21527;SDS011;10925;49.102;-0.370;2023-04-03T15:08:23;24.17;;;15.88;;
21527;SDS011;10925;49.102;-0.370;2023-04-03T15:10:49;20.30;;;15.30;;
21527;SDS011;10925;49.102;-0.370;2023-04-03T15:13:16;17.33;;;13.63;;
21527;SDS011;10925;49.102;-0.370;2023-04-03T15:15:44;23.58;;;14.95;;
21527;SDS011;10925;49.102;-0.370;2023-04-03T15:18:22;21.83;;;16.45;;
21527;SDS011;10925;49.102;-0.370;2023-04-03T15:20:49;22.67;;;16.45;;
21527;SDS011;10925;49.102;-0.370;2023-04-03T15:23:16;24.35;;;15.05;;
21527;SDS011;10925;49.102;-0.370;2023-04-03T15:25:42;20.63;;;14.68;;
21527;SDS011;10925;49.102;-0.370;2023-04-03T15:30:59;23.40;;;16.77;;
21527;SDS011;10925;49.102;-0.370;2023-04-03T15:33:26;17.05;;;12.13;;
21527;SDS011;10925;49.102;-0.370;2023-04-03T15:35:54;19.45;;;15.38;;
21527;SDS011;10925;49.102;-0.370;2023-04-03T15:38:33;22.27;;;15.73;;
21527;SDS011;10925;49.102;-0.370;2023-04-03T15:41:00;20.92;;;16.95;;
21527;SDS011;10925;49.102;-0.370;2023-04-03T15:43:28;20.45;;;15.13;;
21527;SDS011;10925;49.102;-0.370;2023-04-03T15:45:56;19.88;;;15.60;;
21527;SDS011;10925;49.102;-0.370;2023-04-03T15:48:24;22.55;;;14.60;;
21527;SDS011;10925;49.102;-0.370;2023-04-03T15:50:53;19.00;;;16.05;;
21527;SDS011;10925;49.102;-0.370;2023-04-03T15:53:19;19.92;;;15.23;;
21527;SDS011;10925;49.102;-0.370;2023-04-03T15:55:46;19.92;;;15.40;;
21527;SDS011;10925;49.102;-0.370;2023-04-03T15:58:12;23.23;;;15.32;;
21527;SDS011;10925;49.102;-0.370;2023-04-03T16:00:38;18.38;;;14.50;;
21527;SDS011;10925;49.102;-0.370;2023-04-03T16:03:08;19.58;;;14.25;;
21527;SDS011;10925;49.102;-0.370;2023-04-03T16:05:35;21.20;;;15.30;;
21527;SDS011;10925;49.102;-0.370;2023-04-03T16:08:02;19.13;;;14.77;;
21527;SDS011;10925;49.102;-0.370;2023-04-03T16:10:33;18.77;;;14.38;;
21527;SDS011;10925;49.102;-0.370;2023-04-03T16:13:02;19.27;;;13.90;;
21527;SDS011;10925;49.102;-0.370;2023-04-03T16:15:29;14.32;;;12.30;;
21527;SDS011;10925;49.102;-0.370;2023-04-03T16:17:57;14.32;;;11.90;;
21527;SDS011;10925;49.102;-0.370;2023-04-03T16:20:23;16.52;;;12.13;;
21527;SDS011;10925;49.102;-0.370;2023-04-03T16:22:51;17.48;;;11.90;;
21527;SDS011;10925;49.102;-0.370;2023-04-03T16:25:19;16.38;;;13.05;;
21527;SDS011;10925;49.102;-0.370;2023-04-03T16:27:48;18.77;;;12.90;;
21527;SDS011;10925;49.102;-0.370;2023-04-03T16:30:15;15.35;;;10.10;;
21527;SDS011;10925;49.102;-0.370;2023-04-03T16:32:42;15.80;;;11.50;;
21527;SDS011;10925;49.102;-0.370;2023-04-03T16:35:09;14.75;;;10.60;;